createdAt,value
2022-11-10T00:07:50.826Z,2.08
2022-11-10T00:18:12.703Z,1.55
2022-11-10T00:38:56.260Z,2.00
2022-11-10T00:59:39.780Z,2.27
2022-11-10T01:10:01.723Z,2.55
2022-11-10T01:20:24.796Z,3.10
2022-11-10T01:30:46.580Z,3.13
2022-11-10T01:41:10.530Z,3.55
2022-11-10T01:51:38.283Z,3.45
2022-11-10T02:02:10.400Z,3.78
2022-11-10T02:12:38.761Z,3.70
2022-11-10T02:23:12.553Z,4.18
2022-11-10T02:33:34.367Z,4.00
2022-11-10T02:54:18.888Z,3.97
2022-11-10T03:04:40.976Z,4.70
2022-11-10T03:15:02.784Z,4.53
2022-11-10T03:25:24.618Z,4.20
2022-11-10T03:35:46.456Z,4.53
2022-11-10T03:46:08.826Z,4.20
2022-11-10T03:56:30.641Z,4.82
2022-11-10T04:07:10.798Z,4.15
2022-11-10T04:17:32.643Z,4.47
2022-11-10T04:27:54.424Z,4.57
2022-11-10T04:38:16.213Z,4.25
2022-11-10T04:48:38.006Z,5.20
2022-11-10T04:58:59.872Z,6.13
2022-11-10T05:09:21.663Z,6.13
2022-11-10T05:19:43.460Z,6.03
2022-11-10T05:30:05.890Z,6.72
2022-11-10T05:40:28.178Z,6.97
2022-11-10T05:50:49.976Z,8.27
2022-11-10T06:01:11.794Z,8.00
2022-11-10T06:11:33.604Z,9.50
2022-11-10T06:22:01.352Z,9.27
2022-11-10T06:32:25.599Z,11.20
2022-11-10T06:42:47.376Z,9.73
2022-11-10T06:53:09.500Z,10.02
2022-11-10T07:03:31.340Z,9.88
2022-11-10T07:13:53.148Z,9.77
2022-11-10T07:24:14.941Z,9.93
2022-11-10T07:34:36.715Z,10.20
2022-11-10T07:44:58.539Z,10.15
2022-11-10T07:55:20.336Z,10.10
2022-11-10T08:05:42.619Z,10.10
2022-11-10T08:16:04.796Z,9.60
2022-11-10T08:26:26.634Z,9.10
2022-11-10T08:36:48.753Z,8.68
2022-11-10T08:47:10.565Z,9.85
2022-11-10T08:57:32.511Z,8.00
2022-11-10T09:07:54.315Z,7.55
2022-11-10T09:18:17.230Z,6.30
2022-11-10T09:28:39.040Z,6.60
2022-11-10T09:49:33.264Z,6.67
2022-11-10T09:59:55.224Z,6.40
2022-11-10T10:21:21.899Z,6.07
2022-11-10T10:31:48.024Z,5.78
2022-11-10T10:42:41.165Z,4.93
2022-11-10T10:53:15.988Z,4.72
2022-11-10T11:03:39.954Z,4.75
2022-11-10T11:14:24.719Z,3.88
2022-11-10T11:24:55.689Z,3.70
2022-11-10T11:35:26.769Z,3.10
2022-11-10T11:46:20.673Z,2.77
2022-11-10T11:56:47.373Z,3.15
2022-11-10T12:07:17.660Z,2.72
2022-11-10T12:18:05.689Z,2.45
2022-11-10T12:28:34.938Z,2.60
2022-11-10T12:39:14.895Z,2.40
2022-11-10T12:49:39.032Z,2.88
2022-11-10T13:00:02.813Z,2.67
2022-11-10T13:10:27.517Z,2.30
2022-11-10T13:20:54.244Z,2.50
2022-11-10T13:31:40.101Z,2.65
2022-11-10T13:42:07.753Z,2.33
2022-11-10T13:52:52.081Z,1.92
2022-11-10T14:03:45.004Z,2.28
2022-11-10T14:14:21.252Z,2.10
2022-11-10T14:24:53.816Z,2.50
2022-11-10T14:35:22.264Z,2.15
2022-11-10T14:45:51.746Z,2.00
2022-11-10T14:56:17.203Z,2.42
2022-11-10T15:06:44.414Z,2.85
2022-11-10T15:17:11.267Z,2.10
2022-11-10T15:27:33.352Z,2.17
2022-11-10T15:38:25.726Z,1.77
2022-11-10T15:48:50.426Z,2.22
2022-11-10T15:59:12.650Z,2.38
2022-11-10T16:09:34.492Z,2.30
2022-11-10T16:19:56.322Z,2.20
2022-11-10T16:30:18.324Z,2.25
2022-11-10T16:40:40.129Z,1.85
2022-11-10T16:51:02.432Z,1.95
2022-11-10T17:01:28.033Z,1.85
2022-11-10T17:11:49.894Z,2.00
2022-11-10T17:22:16.656Z,2.00
2022-11-10T17:33:03.659Z,1.65
2022-11-10T17:43:21.383Z,1.88
2022-11-10T17:53:43.663Z,2.17
2022-11-10T18:04:05.527Z,1.60
2022-11-10T18:14:27.460Z,1.75
2022-11-10T18:24:49.283Z,1.48
2022-11-10T18:35:11.172Z,1.58
2022-11-10T18:45:33.012Z,1.85
2022-11-10T18:55:56.002Z,1.50
2022-11-10T19:06:18.353Z,1.90
2022-11-10T19:16:39.854Z,1.65
2022-11-10T19:27:01.418Z,1.75
2022-11-10T19:37:22.942Z,1.70
2022-11-10T19:47:44.443Z,2.05
2022-11-10T19:58:05.913Z,2.10
2022-11-10T20:08:28.242Z,1.58
2022-11-10T20:18:49.709Z,1.85
2022-11-10T20:29:11.171Z,1.77
2022-11-10T20:39:32.703Z,1.83
2022-11-10T20:49:54.185Z,1.67
2022-11-10T21:00:16.189Z,1.50
2022-11-10T21:10:37.653Z,1.80
2022-11-10T21:20:59.410Z,1.50
2022-11-10T21:41:44.621Z,1.70
2022-11-10T21:52:06.084Z,1.87
2022-11-10T22:02:27.656Z,1.90
2022-11-10T22:13:07.783Z,1.60
2022-11-10T22:23:47.973Z,2.00
2022-11-10T22:34:09.500Z,2.08
2022-11-10T22:44:31.104Z,2.13
2022-11-10T22:54:52.568Z,1.73
2022-11-10T23:05:14.169Z,1.87
2022-11-10T23:15:35.627Z,2.40
2022-11-10T23:26:18.413Z,2.33
2022-11-10T23:36:39.999Z,2.75
2022-11-10T23:47:01.547Z,2.78
2022-11-10T23:57:23.013Z,2.47
